sensor_id;sensor_type;location;lat;lon;timestamp;pressure;altitude;pressure_sealevel;temperature;humidity
69351;BME280;57106;51.446;-2.606;2024-03-02T00:00:58;98706.57;;;5.23;82.59
69351;BME280;57106;51.446;-2.606;2024-03-02T00:03:14;98703.64;;;5.10;82.35
69351;BME280;57106;51.446;-2.606;2024-03-02T00:08:07;98706.23;;;5.26;81.62
69351;BME280;57106;51.446;-2.606;2024-03-02T00:10:36;98707.20;;;5.12;81.92
69351;BME280;57106;51.446;-2.606;2024-03-02T00:12:57;98709.60;;;5.18;81.95
69351;BME280;57106;51.446;-2.606;2024-03-02T00:17:56;98710.56;;;5.00;82.82
69351;BME280;57106;51.446;-2.606;2024-03-02T00:20:24;98706.16;;;5.10;83.02
69351;BME280;57106;51.446;-2.606;2024-03-02T00:27:32;98713.20;;;5.15;82.64
69351;BME280;57106;51.446;-2.606;2024-03-02T00:29:57;98712.01;;;5.18;82.98
69351;BME280;57106;51.446;-2.606;2024-03-02T00:32:22;98708.69;;;5.24;83.35
69351;BME280;57106;51.446;-2.606;2024-03-02T00:34:48;98707.06;;;5.33;82.85
69351;BME280;57106;51.446;-2.606;2024-03-02T00:37:14;98698.64;;;5.04;83.19
69351;BME280;57106;51.446;-2.606;2024-03-02T00:39:40;98693.10;;;5.15;83.43
69351;BME280;57106;51.446;-2.606;2024-03-02T00:44:36;98690.71;;;5.27;83.32
69351;BME280;57106;51.446;-2.606;2024-03-02T00:46:58;98688.48;;;5.20;83.67
69351;BME280;57106;51.446;-2.606;2024-03-02T00:49:24;98685.54;;;5.40;83.04
69351;BME280;57106;51.446;-2.606;2024-03-02T00:51:50;98681.11;;;5.25;82.54
69351;BME280;57106;51.446;-2.606;2024-03-02T00:54:15;98674.50;;;5.18;83.42
69351;BME280;57106;51.446;-2.606;2024-03-02T00:59:05;98671.34;;;5.35;83.48
69351;BME280;57106;51.446;-2.606;2024-03-02T01:01:36;98669.05;;;5.49;82.95
69351;BME280;57106;51.446;-2.606;2024-03-02T01:03:58;98667.59;;;5.28;82.90
69351;BME280;57106;51.446;-2.606;2024-03-02T01:06:22;98673.10;;;5.53;82.74
69351;BME280;57106;51.446;-2.606;2024-03-02T01:08:48;98670.83;;;5.67;82.27
69351;BME280;57106;51.446;-2.606;2024-03-02T01:11:14;98665.93;;;5.48;82.29
69351;BME280;57106;51.446;-2.606;2024-03-02T01:13:40;98661.11;;;5.57;82.38
69351;BME280;57106;51.446;-2.606;2024-03-02T01:16:06;98662.94;;;5.60;82.58
69351;BME280;57106;51.446;-2.606;2024-03-02T01:18:31;98659.33;;;5.52;82.67
69351;BME280;57106;51.446;-2.606;2024-03-02T01:20:57;98660.79;;;5.57;82.57
69351;BME280;57106;51.446;-2.606;2024-03-02T01:23:33;98660.34;;;5.63;82.52
69351;BME280;57106;51.446;-2.606;2024-03-02T01:28:14;98650.45;;;5.76;81.99
69351;BME280;57106;51.446;-2.606;2024-03-02T01:30:40;98653.99;;;5.80;81.34
69351;BME280;57106;51.446;-2.606;2024-03-02T01:33:06;98657.58;;;5.79;81.43
69351;BME280;57106;51.446;-2.606;2024-03-02T01:35:31;98655.22;;;5.82;81.43
69351;BME280;57106;51.446;-2.606;2024-03-02T01:37:59;98659.87;;;5.68;81.19
69351;BME280;57106;51.446;-2.606;2024-03-02T01:40:24;98658.24;;;5.74;81.56
69351;BME280;57106;51.446;-2.606;2024-03-02T01:42:53;98662.06;;;5.97;81.36
69351;BME280;57106;51.446;-2.606;2024-03-02T01:45:19;98668.76;;;5.95;81.01
69351;BME280;57106;51.446;-2.606;2024-03-02T01:47:39;98670.02;;;5.88;81.11
69351;BME280;57106;51.446;-2.606;2024-03-02T01:50:06;98671.60;;;5.95;81.39
69351;BME280;57106;51.446;-2.606;2024-03-02T01:52:31;98671.20;;;5.99;81.47
69351;BME280;57106;51.446;-2.606;2024-03-02T01:55:02;98668.31;;;5.84;81.90
69351;BME280;57106;51.446;-2.606;2024-03-02T01:57:22;98666.94;;;5.93;82.27
69351;BME280;57106;51.446;-2.606;2024-03-02T01:59:48;98664.93;;;6.13;81.68
69351;BME280;57106;51.446;-2.606;2024-03-02T02:02:14;98668.07;;;6.13;81.48
69351;BME280;57106;51.446;-2.606;2024-03-02T02:04:39;98672.07;;;6.17;81.21
69351;BME280;57106;51.446;-2.606;2024-03-02T02:07:05;98667.71;;;6.17;81.21
69351;BME280;57106;51.446;-2.606;2024-03-02T02:12:03;98669.03;;;6.27;80.73
69351;BME280;57106;51.446;-2.606;2024-03-02T02:14:22;98667.62;;;6.22;81.29
69351;BME280;57106;51.446;-2.606;2024-03-02T02:16:48;98667.55;;;6.25;81.42
69351;BME280;57106;51.446;-2.606;2024-03-02T02:19:13;98667.56;;;6.23;81.12
69351;BME280;57106;51.446;-2.606;2024-03-02T02:21:49;98663.49;;;6.20;81.33
69351;BME280;57106;51.446;-2.606;2024-03-02T02:26:29;98653.89;;;6.36;80.14
69351;BME280;57106;51.446;-2.606;2024-03-02T02:28:56;98651.77;;;6.35;80.11
69351;BME280;57106;51.446;-2.606;2024-03-02T02:31:21;98645.27;;;6.29;80.30
69351;BME280;57106;51.446;-2.606;2024-03-02T02:33:46;98644.89;;;6.34;80.12
69351;BME280;57106;51.446;-2.606;2024-03-02T02:36:12;98637.31;;;6.32;79.64
69351;BME280;57106;51.446;-2.606;2024-03-02T02:38:45;98632.99;;;6.23;79.83
69351;BME280;57106;51.446;-2.606;2024-03-02T02:43:29;98632.49;;;6.17;79.83
69351;BME280;57106;51.446;-2.606;2024-03-02T02:46:01;98629.66;;;6.06;79.96
69351;BME280;57106;51.446;-2.606;2024-03-02T02:48:21;98627.35;;;6.07;79.96
69351;BME280;57106;51.446;-2.606;2024-03-02T02:50:46;98627.66;;;6.18;79.50
69351;BME280;57106;51.446;-2.606;2024-03-02T02:53:12;98624.48;;;6.03;79.83
69351;BME280;57106;51.446;-2.606;2024-03-02T02:58:03;98616.72;;;6.18;79.98
69351;BME280;57106;51.446;-2.606;2024-03-02T03:00:29;98612.66;;;6.23;79.87
69351;BME280;57106;51.446;-2.606;2024-03-02T03:02:55;98605.99;;;6.15;79.98
69351;BME280;57106;51.446;-2.606;2024-03-02T03:05:21;98601.21;;;6.15;79.73
69351;BME280;57106;51.446;-2.606;2024-03-02T03:07:50;98595.72;;;6.03;80.39
69351;BME280;57106;51.446;-2.606;2024-03-02T03:10:12;98590.00;;;5.99;80.84
69351;BME280;57106;51.446;-2.606;2024-03-02T03:12:37;98586.90;;;6.19;80.08
69351;BME280;57106;51.446;-2.606;2024-03-02T03:15:07;98583.95;;;6.19;80.51
69351;BME280;57106;51.446;-2.606;2024-03-02T03:17:29;98579.89;;;6.19;80.61
69351;BME280;57106;51.446;-2.606;2024-03-02T03:19:54;98571.89;;;6.24;79.85
69351;BME280;57106;51.446;-2.606;2024-03-02T03:22:20;98567.11;;;5.87;80.25
69351;BME280;57106;51.446;-2.606;2024-03-02T03:24:47;98563.10;;;5.73;81.33
69351;BME280;57106;51.446;-2.606;2024-03-02T03:27:12;98561.66;;;5.78;81.07
69351;BME280;57106;51.446;-2.606;2024-03-02T03:29:38;98558.49;;;5.66;81.87
69351;BME280;57106;51.446;-2.606;2024-03-02T03:32:03;98557.52;;;5.66;81.80
69351;BME280;57106;51.446;-2.606;2024-03-02T03:34:29;98550.67;;;5.42;82.58
69351;BME280;57106;51.446;-2.606;2024-03-02T03:36:54;98545.03;;;5.36;82.97
69351;BME280;57106;51.446;-2.606;2024-03-02T03:39:20;98541.79;;;5.21;83.61
69351;BME280;57106;51.446;-2.606;2024-03-02T03:41:46;98537.06;;;5.29;83.56
69351;BME280;57106;51.446;-2.606;2024-03-02T03:44:11;98537.34;;;5.10;84.43
69351;BME280;57106;51.446;-2.606;2024-03-02T03:46:37;98535.20;;;4.94;85.68
69351;BME280;57106;51.446;-2.606;2024-03-02T03:51:29;98526.99;;;5.17;84.96
69351;BME280;57106;51.446;-2.606;2024-03-02T03:53:54;98527.86;;;5.17;84.91
69351;BME280;57106;51.446;-2.606;2024-03-02T03:56:20;98532.19;;;5.34;84.70
69351;BME280;57106;51.446;-2.606;2024-03-02T03:58:46;98533.13;;;5.19;85.12
69351;BME280;57106;51.446;-2.606;2024-03-02T04:01:11;98532.41;;;5.19;85.29
69351;BME280;57106;51.446;-2.606;2024-03-02T04:03:38;98536.58;;;5.06;86.66
69351;BME280;57106;51.446;-2.606;2024-03-02T04:08:28;98543.65;;;5.29;85.39
69351;BME280;57106;51.446;-2.606;2024-03-02T04:10:59;98547.82;;;5.43;85.09
69351;BME280;57106;51.446;-2.606;2024-03-02T04:18:11;98554.93;;;4.97;85.97
69351;BME280;57106;51.446;-2.606;2024-03-02T04:20:37;98555.33;;;4.94;86.34
69351;BME280;57106;51.446;-2.606;2024-03-02T04:30:20;98563.51;;;5.09;82.35
69351;BME280;57106;51.446;-2.606;2024-03-02T04:32:46;98563.12;;;4.99;82.44
69351;BME280;57106;51.446;-2.606;2024-03-02T04:35:12;98566.70;;;4.72;81.99
69351;BME280;57106;51.446;-2.606;2024-03-02T04:40:12;98568.58;;;4.68;81.76
69351;BME280;57106;51.446;-2.606;2024-03-02T04:42:32;98569.11;;;4.78;81.76
69351;BME280;57106;51.446;-2.606;2024-03-02T04:45:00;98574.46;;;4.68;82.42
69351;BME280;57106;51.446;-2.606;2024-03-02T04:47:24;98573.75;;;4.73;82.32
69351;BME280;57106;51.446;-2.606;2024-03-02T04:50:04;98574.30;;;4.82;81.61
69351;BME280;57106;51.446;-2.606;2024-03-02T04:52:31;98577.30;;;4.64;81.25
69351;BME280;57106;51.446;-2.606;2024-03-02T04:54:49;98581.19;;;4.51;80.82
69351;BME280;57106;51.446;-2.606;2024-03-02T04:57:14;98583.66;;;4.54;80.89
69351;BME280;57106;51.446;-2.606;2024-03-02T04:59:36;98588.06;;;4.34;81.67
69351;BME280;57106;51.446;-2.606;2024-03-02T05:04:27;98592.61;;;4.19;81.62
69351;BME280;57106;51.446;-2.606;2024-03-02T05:14:03;98600.13;;;3.72;81.51
69351;BME280;57106;51.446;-2.606;2024-03-02T05:16:32;98601.14;;;3.58;81.86
69351;BME280;57106;51.446;-2.606;2024-03-02T05:18:55;98602.54;;;3.47;81.70
69351;BME280;57106;51.446;-2.606;2024-03-02T05:21:26;98606.50;;;3.57;82.23
69351;BME280;57106;51.446;-2.606;2024-03-02T05:23:46;98613.26;;;3.66;80.89
69351;BME280;57106;51.446;-2.606;2024-03-02T05:26:12;98612.68;;;3.57;80.93
69351;BME280;57106;51.446;-2.606;2024-03-02T05:28:38;98619.88;;;3.44;81.30
69351;BME280;57106;51.446;-2.606;2024-03-02T05:31:04;98619.74;;;3.49;81.13
69351;BME280;57106;51.446;-2.606;2024-03-02T05:33:29;98618.28;;;3.46;80.95
69351;BME280;57106;51.446;-2.606;2024-03-02T05:40:48;98614.18;;;3.48;82.12
69351;BME280;57106;51.446;-2.606;2024-03-02T05:43:31;98613.22;;;3.53;82.77
69351;BME280;57106;51.446;-2.606;2024-03-02T05:45:49;98614.46;;;3.42;82.88
69351;BME280;57106;51.446;-2.606;2024-03-02T05:48:15;98616.34;;;3.60;82.48
69351;BME280;57106;51.446;-2.606;2024-03-02T05:50:32;98616.83;;;3.70;82.06
69351;BME280;57106;51.446;-2.606;2024-03-02T05:52:57;98621.47;;;3.44;82.00
69351;BME280;57106;51.446;-2.606;2024-03-02T05:55:29;98621.58;;;3.67;82.09
69351;BME280;57106;51.446;-2.606;2024-03-02T05:57:56;98622.62;;;3.73;80.98
69351;BME280;57106;51.446;-2.606;2024-03-02T06:00:29;98625.15;;;3.53;81.29
69351;BME280;57106;51.446;-2.606;2024-03-02T06:02:48;98627.38;;;3.29;82.71
69351;BME280;57106;51.446;-2.606;2024-03-02T06:05:15;98629.85;;;3.60;82.46
69351;BME280;57106;51.446;-2.606;2024-03-02T06:14:48;98637.30;;;4.05;81.65
69351;BME280;57106;51.446;-2.606;2024-03-02T06:17:18;98638.14;;;3.69;81.31
69351;BME280;57106;51.446;-2.606;2024-03-02T06:19:39;98639.95;;;3.89;81.13
69351;BME280;57106;51.446;-2.606;2024-03-02T06:22:11;98641.25;;;3.75;81.19
69351;BME280;57106;51.446;-2.606;2024-03-02T06:24:34;98641.08;;;3.72;81.17
69351;BME280;57106;51.446;-2.606;2024-03-02T06:29:29;98640.69;;;3.71;81.45
69351;BME280;57106;51.446;-2.606;2024-03-02T06:31:48;98640.72;;;3.72;81.91
69351;BME280;57106;51.446;-2.606;2024-03-02T06:34:14;98644.25;;;3.97;81.19
69351;BME280;57106;51.446;-2.606;2024-03-02T06:36:39;98641.17;;;3.80;81.06
69351;BME280;57106;51.446;-2.606;2024-03-02T06:39:06;98643.13;;;3.95;81.05
69351;BME280;57106;51.446;-2.606;2024-03-02T06:41:31;98646.06;;;3.79;81.31
69351;BME280;57106;51.446;-2.606;2024-03-02T06:43:57;98647.53;;;3.79;81.45
69351;BME280;57106;51.446;-2.606;2024-03-02T06:46:22;98650.22;;;3.59;82.03
69351;BME280;57106;51.446;-2.606;2024-03-02T06:48:48;98653.02;;;3.71;82.10
69351;BME280;57106;51.446;-2.606;2024-03-02T06:51:14;98654.16;;;3.75;82.58
69351;BME280;57106;51.446;-2.606;2024-03-02T06:53:40;98656.22;;;3.93;82.15
69351;BME280;57106;51.446;-2.606;2024-03-02T06:56:07;98657.04;;;4.01;81.38
69351;BME280;57106;51.446;-2.606;2024-03-02T06:58:31;98657.54;;;4.05;81.50
69351;BME280;57106;51.446;-2.606;2024-03-02T07:00:57;98662.10;;;3.88;80.91
69351;BME280;57106;51.446;-2.606;2024-03-02T07:03:23;98666.81;;;3.96;81.99
69351;BME280;57106;51.446;-2.606;2024-03-02T07:05:54;98671.10;;;4.03;81.37
69351;BME280;57106;51.446;-2.606;2024-03-02T07:08:14;98675.02;;;4.05;81.68
69351;BME280;57106;51.446;-2.606;2024-03-02T07:10:40;98675.89;;;4.26;80.78
69351;BME280;57106;51.446;-2.606;2024-03-02T07:13:06;98679.43;;;4.20;81.00
69351;BME280;57106;51.446;-2.606;2024-03-02T07:15:32;98682.11;;;4.18;80.92
69351;BME280;57106;51.446;-2.606;2024-03-02T07:17:57;98686.69;;;4.19;80.67
69351;BME280;57106;51.446;-2.606;2024-03-02T07:20:23;98686.71;;;4.32;80.36
69351;BME280;57106;51.446;-2.606;2024-03-02T07:23:05;98691.24;;;4.27;79.84
69351;BME280;57106;51.446;-2.606;2024-03-02T07:25:16;98695.90;;;4.40;80.69
69351;BME280;57106;51.446;-2.606;2024-03-02T07:27:42;98697.25;;;4.46;80.55
69351;BME280;57106;51.446;-2.606;2024-03-02T07:30:07;98695.59;;;4.44;80.25
69351;BME280;57106;51.446;-2.606;2024-03-02T07:32:32;98697.72;;;4.48;79.92
69351;BME280;57106;51.446;-2.606;2024-03-02T07:34:58;98698.77;;;4.57;79.62
69351;BME280;57106;51.446;-2.606;2024-03-02T07:37:24;98698.77;;;4.67;79.67
69351;BME280;57106;51.446;-2.606;2024-03-02T07:39:57;98700.36;;;4.44;79.87
69351;BME280;57106;51.446;-2.606;2024-03-02T07:42:15;98701.73;;;4.65;80.08
69351;BME280;57106;51.446;-2.606;2024-03-02T07:44:41;98703.04;;;4.59;80.00
69351;BME280;57106;51.446;-2.606;2024-03-02T07:47:06;98707.44;;;4.73;79.48
69351;BME280;57106;51.446;-2.606;2024-03-02T07:49:32;98709.62;;;4.91;79.42
69351;BME280;57106;51.446;-2.606;2024-03-02T07:51:58;98711.35;;;4.94;79.77
69351;BME280;57106;51.446;-2.606;2024-03-02T07:54:24;98714.66;;;4.83;79.57
69351;BME280;57106;51.446;-2.606;2024-03-02T07:56:50;98717.71;;;4.81;80.04
69351;BME280;57106;51.446;-2.606;2024-03-02T07:59:20;98714.72;;;4.82;80.28
69351;BME280;57106;51.446;-2.606;2024-03-02T08:01:41;98717.43;;;4.81;80.07
69351;BME280;57106;51.446;-2.606;2024-03-02T08:04:11;98720.04;;;4.96;79.72
69351;BME280;57106;51.446;-2.606;2024-03-02T08:06:32;98720.09;;;5.05;80.80
69351;BME280;57106;51.446;-2.606;2024-03-02T08:09:00;98725.88;;;4.79;80.35
69351;BME280;57106;51.446;-2.606;2024-03-02T08:11:24;98729.22;;;4.83;81.75
69351;BME280;57106;51.446;-2.606;2024-03-02T08:13:50;98731.20;;;4.76;81.83
69351;BME280;57106;51.446;-2.606;2024-03-02T08:16:16;98731.68;;;5.00;81.76
69351;BME280;57106;51.446;-2.606;2024-03-02T08:18:41;98735.39;;;5.12;81.73
69351;BME280;57106;51.446;-2.606;2024-03-02T08:21:07;98742.44;;;4.94;81.75
69351;BME280;57106;51.446;-2.606;2024-03-02T08:23:32;98746.33;;;5.27;81.18
69351;BME280;57106;51.446;-2.606;2024-03-02T08:25:58;98749.58;;;5.08;81.37
69351;BME280;57106;51.446;-2.606;2024-03-02T08:28:25;98750.48;;;5.14;81.79
69351;BME280;57106;51.446;-2.606;2024-03-02T08:30:49;98754.70;;;5.01;81.00
69351;BME280;57106;51.446;-2.606;2024-03-02T08:33:15;98758.77;;;5.37;81.23
69351;BME280;57106;51.446;-2.606;2024-03-02T08:35:41;98761.49;;;5.54;80.45
69351;BME280;57106;51.446;-2.606;2024-03-02T08:38:07;98765.00;;;5.49;80.25
69351;BME280;57106;51.446;-2.606;2024-03-02T08:40:33;98765.21;;;5.87;80.38
69351;BME280;57106;51.446;-2.606;2024-03-02T08:42:58;98770.97;;;5.81;79.70
69351;BME280;57106;51.446;-2.606;2024-03-02T08:45:24;98766.18;;;5.91;80.10
69351;BME280;57106;51.446;-2.606;2024-03-02T08:47:50;98769.41;;;5.84;79.11
69351;BME280;57106;51.446;-2.606;2024-03-02T08:50:16;98773.34;;;5.99;78.91
69351;BME280;57106;51.446;-2.606;2024-03-02T08:52:41;98774.91;;;5.85;80.15
69351;BME280;57106;51.446;-2.606;2024-03-02T08:55:07;98777.62;;;5.89;80.07
69351;BME280;57106;51.446;-2.606;2024-03-02T08:57:33;98776.54;;;5.98;79.83
69351;BME280;57106;51.446;-2.606;2024-03-02T08:59:58;98775.73;;;6.09;79.65
69351;BME280;57106;51.446;-2.606;2024-03-02T09:02:25;98777.90;;;6.17;79.77
69351;BME280;57106;51.446;-2.606;2024-03-02T09:04:49;98780.67;;;6.15;78.99
69351;BME280;57106;51.446;-2.606;2024-03-02T09:07:15;98784.41;;;5.98;79.37
69351;BME280;57106;51.446;-2.606;2024-03-02T09:09:40;98786.42;;;6.00;79.19
69351;BME280;57106;51.446;-2.606;2024-03-02T09:12:07;98788.70;;;5.97;79.34
69351;BME280;57106;51.446;-2.606;2024-03-02T09:14:32;98788.51;;;6.09;78.82
69351;BME280;57106;51.446;-2.606;2024-03-02T09:16:57;98786.72;;;6.14;78.42
69351;BME280;57106;51.446;-2.606;2024-03-02T09:19:23;98790.08;;;5.96;78.44
69351;BME280;57106;51.446;-2.606;2024-03-02T09:21:54;98790.43;;;6.12;77.48
69351;BME280;57106;51.446;-2.606;2024-03-02T09:24:14;98789.12;;;6.15;78.38
69351;BME280;57106;51.446;-2.606;2024-03-02T09:26:40;98796.69;;;6.11;77.05
69351;BME280;57106;51.446;-2.606;2024-03-02T09:29:06;98799.42;;;5.80;77.11
69351;BME280;57106;51.446;-2.606;2024-03-02T09:31:31;98803.37;;;6.05;77.94
69351;BME280;57106;51.446;-2.606;2024-03-02T09:33:57;98806.69;;;5.89;77.22
69351;BME280;57106;51.446;-2.606;2024-03-02T09:36:23;98811.10;;;6.07;77.78
69351;BME280;57106;51.446;-2.606;2024-03-02T09:38:49;98811.08;;;6.19;76.81
69351;BME280;57106;51.446;-2.606;2024-03-02T09:41:15;98809.15;;;6.16;77.96
69351;BME280;57106;51.446;-2.606;2024-03-02T09:43:40;98807.97;;;5.86;77.32
69351;BME280;57106;51.446;-2.606;2024-03-02T09:46:07;98808.05;;;6.02;77.96
69351;BME280;57106;51.446;-2.606;2024-03-02T09:48:31;98809.04;;;6.09;77.63
69351;BME280;57106;51.446;-2.606;2024-03-02T09:50:57;98806.73;;;6.20;77.35
69351;BME280;57106;51.446;-2.606;2024-03-02T09:53:32;98808.45;;;6.23;77.51
69351;BME280;57106;51.446;-2.606;2024-03-02T09:55:48;98806.98;;;6.35;77.17
69351;BME280;57106;51.446;-2.606;2024-03-02T09:58:14;98808.53;;;6.40;77.87
69351;BME280;57106;51.446;-2.606;2024-03-02T10:00:39;98814.23;;;6.21;78.16
69351;BME280;57106;51.446;-2.606;2024-03-02T10:03:05;98817.03;;;6.28;78.83
69351;BME280;57106;51.446;-2.606;2024-03-02T10:05:31;98821.26;;;6.22;78.02
69351;BME280;57106;51.446;-2.606;2024-03-02T10:07:59;98817.74;;;6.31;77.69
69351;BME280;57106;51.446;-2.606;2024-03-02T10:12:48;98819.95;;;6.47;78.27
69351;BME280;57106;51.446;-2.606;2024-03-02T10:15:23;98823.19;;;6.47;78.15
69351;BME280;57106;51.446;-2.606;2024-03-02T10:17:39;98824.57;;;6.38;77.77
69351;BME280;57106;51.446;-2.606;2024-03-02T10:22:41;98824.14;;;6.44;77.59
69351;BME280;57106;51.446;-2.606;2024-03-02T10:24:56;98826.21;;;6.64;77.65
69351;BME280;57106;51.446;-2.606;2024-03-02T10:27:26;98829.46;;;6.69;77.90
69351;BME280;57106;51.446;-2.606;2024-03-02T10:29:49;98834.98;;;6.82;77.19
69351;BME280;57106;51.446;-2.606;2024-03-02T10:32:16;98842.26;;;6.71;77.07
69351;BME280;57106;51.446;-2.606;2024-03-02T10:34:40;98842.00;;;6.53;76.49
69351;BME280;57106;51.446;-2.606;2024-03-02T10:37:06;98841.64;;;6.54;77.51
69351;BME280;57106;51.446;-2.606;2024-03-02T10:39:36;98846.72;;;6.40;77.78
69351;BME280;57106;51.446;-2.606;2024-03-02T10:42:02;98846.00;;;6.61;77.88
69351;BME280;57106;51.446;-2.606;2024-03-02T10:44:26;98851.92;;;6.38;78.09
69351;BME280;57106;51.446;-2.606;2024-03-02T10:46:48;98848.13;;;6.62;78.70
69351;BME280;57106;51.446;-2.606;2024-03-02T10:49:13;98851.20;;;6.90;78.09
69351;BME280;57106;51.446;-2.606;2024-03-02T10:51:39;98853.32;;;6.80;76.94
69351;BME280;57106;51.446;-2.606;2024-03-02T10:54:04;98856.08;;;6.73;78.45
69351;BME280;57106;51.446;-2.606;2024-03-02T10:56:31;98861.95;;;6.58;77.39
69351;BME280;57106;51.446;-2.606;2024-03-02T10:59:02;98866.28;;;6.54;77.27
69351;BME280;57106;51.446;-2.606;2024-03-02T11:01:21;98868.57;;;6.32;77.89
69351;BME280;57106;51.446;-2.606;2024-03-02T11:03:47;98872.69;;;5.93;78.65
69351;BME280;57106;51.446;-2.606;2024-03-02T11:06:14;98875.94;;;5.95;79.26
69351;BME280;57106;51.446;-2.606;2024-03-02T11:08:41;98881.02;;;6.07;79.18
69351;BME280;57106;51.446;-2.606;2024-03-02T11:11:07;98886.21;;;5.93;79.07
69351;BME280;57106;51.446;-2.606;2024-03-02T11:13:31;98887.62;;;6.18;79.12
69351;BME280;57106;51.446;-2.606;2024-03-02T11:15:59;98888.91;;;6.23;78.20
69351;BME280;57106;51.446;-2.606;2024-03-02T11:18:21;98894.81;;;6.26;78.45
69351;BME280;57106;51.446;-2.606;2024-03-02T11:20:47;98896.37;;;6.33;78.59
69351;BME280;57106;51.446;-2.606;2024-03-02T11:23:12;98903.88;;;6.03;78.47
69351;BME280;57106;51.446;-2.606;2024-03-02T11:25:38;98904.37;;;6.15;78.17
69351;BME280;57106;51.446;-2.606;2024-03-02T11:28:05;98911.27;;;5.98;77.26
69351;BME280;57106;51.446;-2.606;2024-03-02T11:30:49;98913.35;;;5.81;78.34
69351;BME280;57106;51.446;-2.606;2024-03-02T11:32:55;98915.89;;;5.85;78.29
69351;BME280;57106;51.446;-2.606;2024-03-02T11:35:20;98920.70;;;5.75;79.46
69351;BME280;57106;51.446;-2.606;2024-03-02T11:37:46;98922.13;;;5.56;80.14
69351;BME280;57106;51.446;-2.606;2024-03-02T11:40:11;98924.89;;;5.53;79.58
69351;BME280;57106;51.446;-2.606;2024-03-02T11:42:38;98924.16;;;5.54;79.65
69351;BME280;57106;51.446;-2.606;2024-03-02T11:45:03;98927.25;;;5.28;79.85
69351;BME280;57106;51.446;-2.606;2024-03-02T11:47:31;98929.70;;;5.37;80.18
69351;BME280;57106;51.446;-2.606;2024-03-02T11:49:54;98932.09;;;5.25;80.16
69351;BME280;57106;51.446;-2.606;2024-03-02T11:52:20;98929.46;;;5.33;80.80
69351;BME280;57106;51.446;-2.606;2024-03-02T11:54:47;98929.35;;;5.36;80.79
69351;BME280;57106;51.446;-2.606;2024-03-02T11:57:12;98933.61;;;5.35;81.18
69351;BME280;57106;51.446;-2.606;2024-03-02T11:59:37;98930.68;;;5.57;80.89
69351;BME280;57106;51.446;-2.606;2024-03-02T12:02:03;98933.73;;;5.58;81.03
69351;BME280;57106;51.446;-2.606;2024-03-02T12:04:29;98932.31;;;5.46;80.66
69351;BME280;57106;51.446;-2.606;2024-03-02T12:06:55;98935.47;;;5.42;80.93
69351;BME280;57106;51.446;-2.606;2024-03-02T12:09:20;98935.37;;;5.64;82.51
69351;BME280;57106;51.446;-2.606;2024-03-02T12:11:48;98936.27;;;5.45;82.18
69351;BME280;57106;51.446;-2.606;2024-03-02T12:14:11;98939.44;;;5.52;81.87
69351;BME280;57106;51.446;-2.606;2024-03-02T12:16:37;98941.46;;;5.47;81.72
69351;BME280;57106;51.446;-2.606;2024-03-02T12:19:02;98937.96;;;5.54;82.08
69351;BME280;57106;51.446;-2.606;2024-03-02T12:21:30;98943.19;;;5.63;81.83
69351;BME280;57106;51.446;-2.606;2024-03-02T12:23:54;98945.94;;;5.33;82.02
69351;BME280;57106;51.446;-2.606;2024-03-02T12:26:20;98943.79;;;5.31;82.77
69351;BME280;57106;51.446;-2.606;2024-03-02T12:28:45;98942.20;;;5.14;83.85
69351;BME280;57106;51.446;-2.606;2024-03-02T12:31:11;98944.45;;;5.30;84.28
69351;BME280;57106;51.446;-2.606;2024-03-02T12:33:36;98948.09;;;5.41;83.04
69351;BME280;57106;51.446;-2.606;2024-03-02T12:36:02;98949.43;;;5.29;84.07
69351;BME280;57106;51.446;-2.606;2024-03-02T12:38:26;98946.23;;;5.57;83.33
69351;BME280;57106;51.446;-2.606;2024-03-02T12:40:52;98950.22;;;5.37;83.09
69351;BME280;57106;51.446;-2.606;2024-03-02T12:43:19;98950.41;;;5.55;82.64
69351;BME280;57106;51.446;-2.606;2024-03-02T12:45:43;98954.00;;;5.48;82.76
69351;BME280;57106;51.446;-2.606;2024-03-02T12:48:09;98951.66;;;5.38;83.35
69351;BME280;57106;51.446;-2.606;2024-03-02T12:50:34;98956.11;;;5.37;83.74
69351;BME280;57106;51.446;-2.606;2024-03-02T12:53:00;98964.15;;;5.33;84.59
69351;BME280;57106;51.446;-2.606;2024-03-02T12:55:26;98966.37;;;5.41;84.22
69351;BME280;57106;51.446;-2.606;2024-03-02T12:57:51;98974.51;;;5.49;83.98
69351;BME280;57106;51.446;-2.606;2024-03-02T13:00:19;98975.93;;;5.65;83.71
69351;BME280;57106;51.446;-2.606;2024-03-02T13:02:43;98976.48;;;5.67;83.00
69351;BME280;57106;51.446;-2.606;2024-03-02T13:05:09;98979.63;;;5.56;83.45
69351;BME280;57106;51.446;-2.606;2024-03-02T13:07:37;98981.60;;;5.37;83.67
69351;BME280;57106;51.446;-2.606;2024-03-02T13:10:00;98983.54;;;5.52;83.60
69351;BME280;57106;51.446;-2.606;2024-03-02T13:12:26;98986.36;;;5.57;83.15
69351;BME280;57106;51.446;-2.606;2024-03-02T13:14:58;98982.48;;;5.62;82.85
69351;BME280;57106;51.446;-2.606;2024-03-02T13:17:17;98985.92;;;5.70;82.98
69351;BME280;57106;51.446;-2.606;2024-03-02T13:22:08;98990.49;;;5.74;82.69
69351;BME280;57106;51.446;-2.606;2024-03-02T13:24:35;98992.44;;;5.91;82.22
69351;BME280;57106;51.446;-2.606;2024-03-02T13:27:00;98996.37;;;5.79;82.54
69351;BME280;57106;51.446;-2.606;2024-03-02T13:29:26;98996.03;;;5.76;81.60
69351;BME280;57106;51.446;-2.606;2024-03-02T13:31:51;98998.66;;;6.13;81.58
69351;BME280;57106;51.446;-2.606;2024-03-02T13:34:17;98997.24;;;5.84;80.99
69351;BME280;57106;51.446;-2.606;2024-03-02T13:39:08;99004.95;;;6.16;82.75
69351;BME280;57106;51.446;-2.606;2024-03-02T13:41:34;99006.80;;;6.27;81.79
69351;BME280;57106;51.446;-2.606;2024-03-02T13:43:59;99010.18;;;6.17;80.78
69351;BME280;57106;51.446;-2.606;2024-03-02T13:46:25;99009.33;;;6.03;80.93
69351;BME280;57106;51.446;-2.606;2024-03-02T13:48:50;99012.65;;;5.94;82.30
69351;BME280;57106;51.446;-2.606;2024-03-02T13:51:16;99011.20;;;6.16;82.05
69351;BME280;57106;51.446;-2.606;2024-03-02T13:53:42;99014.85;;;6.20;81.80
69351;BME280;57106;51.446;-2.606;2024-03-02T13:56:08;99016.29;;;6.22;82.81
69351;BME280;57106;51.446;-2.606;2024-03-02T13:58:33;99012.40;;;6.23;81.38
69351;BME280;57106;51.446;-2.606;2024-03-02T14:00:59;99014.50;;;6.18;80.65
69351;BME280;57106;51.446;-2.606;2024-03-02T14:03:25;99010.97;;;6.09;80.88
69351;BME280;57106;51.446;-2.606;2024-03-02T14:05:51;99014.48;;;6.43;81.42
69351;BME280;57106;51.446;-2.606;2024-03-02T14:08:18;99013.78;;;6.48;80.71
69351;BME280;57106;51.446;-2.606;2024-03-02T14:13:07;99019.90;;;6.36;80.18